CLL weather

Easterwood Field
College Station, Texas, United States

Public forecast

Using degrees Fahrenheit for public forecast. Weather courtesy of forecast.io.

Current aviation weather report (METAR) for Easterwood Field

Retrieved 2019/11/20 11:31 UTC (0 seconds ago):

KCLL 201131Z AUTO 14005KT 5SM BR SCT016 BKN025 BKN032 17/16 A2998

Aviation forecast (TAF) for Easterwood Field

Retrieved 2019/11/20 06:30 UTC (5 hours ago):

TAF KCLL 200529Z 2006/2106 14006KT P6SM FEW250 FM201000 14006KT P6SM SCT025 FM201400 14008KT P6SM BKN015 BKN025 FM201800 16015G23KT P6SM BKN040 FM210200 16010KT P6SM BKN020 BKN035